This is the latest recevied weather packets stored in our database for station/object OE5HCE. If no packets are shown the sender has not sent any weather packets the latest 1 day(s).
| Time | Temp. | Humidity | Pressure | Rain* | Wind** | Luminosity | Snow |
|---|---|---|---|---|---|---|---|
| 1777963535 | 16.67° C | 64% | 1008.5 hPa | 0 mm | 0 m/s | 397 W/m² | - |
| 1777962633 | 16.67° C | 67% | 1008.6 hPa | 0 mm | 0 m/s | 357 W/m² | - |
| 1777961726 | 15.56° C | 71% | 1008.7 hPa | 0 mm | 0 m/s | 316 W/m² | - |
| 1777960820 | 14.44° C | 76% | 1008.8 hPa | 0 mm | 0 m/s | 276 W/m² | - |
| 1777959916 | 13.89° C | 76% | 1008.8 hPa | 0 mm | 0 m/s | 234 W/m² | - |
| 1777959012 | 13.33° C | 77% | 1008.9 hPa | 0 mm | 0 m/s | 195 W/m² | - |
| 1777958110 | 12.22° C | 78% | 1008.8 hPa | 0 mm | 0 m/s | 151 W/m² | - |
| 1777957203 | 12.22° C | 78% | 1008.8 hPa | 0 mm | 0 m/s | 111 W/m² | - |
| 1777956362 | 11.67° C | 78% | 1008.8 hPa | 0 mm | 0 m/s | 76 W/m² | - |
| 1777955466 | 11.11° C | 79% | 1008.9 hPa | 0 mm | 0 m/s | 44 W/m² | - |
| 1777954551 | 11.67° C | 78% | 1009 hPa | 0 mm | 0 m/s | 19 W/m² | - |
| 1777953649 | 11.67° C | 78% | 1009 hPa | 0 mm | 0 m/s | 9 W/m² | - |
| 1777952771 | 11.67° C | 78% | 1008.9 hPa | 0 mm | 0 m/s | 0 W/m² | - |
| 1777951852 | 12.22° C | 78% | 1008.9 hPa | 0 mm | 0 m/s | 0 W/m² | - |
| 1777950942 | 12.22° C | 77% | 1008.9 hPa | 0 mm | 0 m/s | 0 W/m² | - |
| 1777950040 | 12.78° C | 77% | 1008.9 hPa | 0 mm | 0 m/s | 0 W/m² | - |
| 1777949138 | 12.78° C | 76% | 1009 hPa | 0 mm | 0 m/s | 0 W/m² | - |
| 1777948235 | 13.33° C | 75% | 1009.1 hPa | 0 mm | 0 m/s | 0 W/m² | - |
| 1777947333 | 13.33° C | 75% | 1009.1 hPa | 0 mm | 0 m/s | 0 W/m² | - |
| 1777946433 | 13.33° C | 75% | 1009.1 hPa | 0 mm | 0 m/s | 0 W/m² | - |
| 1777945531 | 13.89° C | 74% | 1009.1 hPa | 0 mm | 0 m/s | 0 W/m² | - |
* Rain latest hour (hover to see other rain measurements)
** Current wind speed in m/s (hover to see current wind gust speed)